sensor_id;sensor_type;location;lat;lon;timestamp;noise_LAeq;noise_LA_min;noise_LA_max;noise_LA01;noise_LA95
66460;Laerm;58055;52.456;4.738;2023-06-10T00:00:02;40.81;36.51;52.88;;
66460;Laerm;58055;52.456;4.738;2023-06-10T00:00:15;40.09;36.05;49.02;;
66460;Laerm;58055;52.456;4.738;2023-06-10T00:00:26;37.98;34.87;40.58;;
66460;Laerm;58055;52.456;4.738;2023-06-10T00:00:37;37.40;35.14;41.27;;
66460;Laerm;58055;52.456;4.738;2023-06-10T00:00:47;36.95;34.55;42.83;;
66460;Laerm;58055;52.456;4.738;2023-06-10T00:00:57;36.68;34.60;42.37;;
66460;Laerm;58055;52.456;4.738;2023-06-10T00:01:07;36.61;34.52;40.42;;
66460;Laerm;58055;52.456;4.738;2023-06-10T00:01:18;36.32;34.37;38.79;;
66460;Laerm;58055;52.456;4.738;2023-06-10T00:01:28;36.39;34.54;39.61;;
66460;Laerm;58055;52.456;4.738;2023-06-10T00:01:38;36.39;34.30;41.19;;
66460;Laerm;58055;52.456;4.738;2023-06-10T00:01:49;37.13;34.64;42.71;;
66460;Laerm;58055;52.456;4.738;2023-06-10T00:01:59;37.26;34.42;41.40;;
66460;Laerm;58055;52.456;4.738;2023-06-10T00:02:10;37.11;34.58;42.61;;
66460;Laerm;58055;52.456;4.738;2023-06-10T00:02:20;38.09;34.44;43.74;;
66460;Laerm;58055;52.456;4.738;2023-06-10T00:02:30;35.96;34.22;39.54;;
66460;Laerm;58055;52.456;4.738;2023-06-10T00:02:41;39.46;34.37;49.07;;
66460;Laerm;58055;52.456;4.738;2023-06-10T00:02:52;39.89;34.68;49.09;;
66460;Laerm;58055;52.456;4.738;2023-06-10T00:03:02;36.47;34.61;39.27;;
66460;Laerm;58055;52.456;4.738;2023-06-10T00:03:13;36.54;34.93;39.05;;
66460;Laerm;58055;52.456;4.738;2023-06-10T00:03:24;37.50;34.49;43.50;;
66460;Laerm;58055;52.456;4.738;2023-06-10T00:03:35;42.01;34.33;51.60;;
66460;Laerm;58055;52.456;4.738;2023-06-10T00:03:46;41.28;34.07;50.74;;
66460;Laerm;58055;52.456;4.738;2023-06-10T00:03:56;38.47;33.84;47.88;;
66460;Laerm;58055;52.456;4.738;2023-06-10T00:04:07;39.29;34.42;50.87;;
66460;Laerm;58055;52.456;4.738;2023-06-10T00:04:17;37.86;33.31;53.89;;
66460;Laerm;58055;52.456;4.738;2023-06-10T00:04:27;38.14;34.20;45.66;;
66460;Laerm;58055;52.456;4.738;2023-06-10T00:04:38;37.24;34.80;41.53;;
66460;Laerm;58055;52.456;4.738;2023-06-10T00:04:48;41.32;34.43;52.09;;
66460;Laerm;58055;52.456;4.738;2023-06-10T00:04:58;41.02;35.59;50.80;;
66460;Laerm;58055;52.456;4.738;2023-06-10T00:05:09;40.07;35.89;47.27;;
66460;Laerm;58055;52.456;4.738;2023-06-10T00:05:19;37.06;35.03;43.13;;
66460;Laerm;58055;52.456;4.738;2023-06-10T00:05:31;38.59;35.55;45.32;;
66460;Laerm;58055;52.456;4.738;2023-06-10T00:05:41;37.79;35.44;41.22;;
66460;Laerm;58055;52.456;4.738;2023-06-10T00:05:52;38.77;35.11;44.05;;
66460;Laerm;58055;52.456;4.738;2023-06-10T00:06:02;41.26;34.95;50.11;;
66460;Laerm;58055;52.456;4.738;2023-06-10T00:06:13;37.90;35.25;43.72;;
66460;Laerm;58055;52.456;4.738;2023-06-10T00:06:23;37.65;35.04;43.09;;
66460;Laerm;58055;52.456;4.738;2023-06-10T00:06:34;37.35;35.30;40.50;;
66460;Laerm;58055;52.456;4.738;2023-06-10T00:06:47;36.98;34.88;43.56;;
66460;Laerm;58055;52.456;4.738;2023-06-10T00:06:59;37.47;34.87;41.94;;
66460;Laerm;58055;52.456;4.738;2023-06-10T00:07:09;36.93;35.30;40.70;;
66460;Laerm;58055;52.456;4.738;2023-06-10T00:07:20;37.00;34.89;41.75;;
66460;Laerm;58055;52.456;4.738;2023-06-10T00:07:30;41.27;35.25;49.27;;
66460;Laerm;58055;52.456;4.738;2023-06-10T00:07:40;38.01;34.76;43.67;;
66460;Laerm;58055;52.456;4.738;2023-06-10T00:07:51;36.81;34.83;39.60;;
66460;Laerm;58055;52.456;4.738;2023-06-10T00:08:05;36.23;34.54;40.14;;
66460;Laerm;58055;52.456;4.738;2023-06-10T00:08:18;42.99;34.18;54.37;;
66460;Laerm;58055;52.456;4.738;2023-06-10T00:08:29;36.87;34.94;41.44;;
66460;Laerm;58055;52.456;4.738;2023-06-10T00:08:41;36.33;34.69;40.56;;
66460;Laerm;58055;52.456;4.738;2023-06-10T00:08:52;36.98;34.69;40.50;;
66460;Laerm;58055;52.456;4.738;2023-06-10T00:09:04;36.68;34.12;40.10;;
66460;Laerm;58055;52.456;4.738;2023-06-10T00:09:15;36.29;33.85;40.67;;
66460;Laerm;58055;52.456;4.738;2023-06-10T00:09:25;35.91;33.96;41.01;;
66460;Laerm;58055;52.456;4.738;2023-06-10T00:09:39;36.08;34.33;42.29;;
66460;Laerm;58055;52.456;4.738;2023-06-10T00:09:50;40.84;33.98;50.85;;
66460;Laerm;58055;52.456;4.738;2023-06-10T00:10:01;39.89;34.32;46.84;;
66460;Laerm;58055;52.456;4.738;2023-06-10T00:10:15;40.20;35.16;47.67;;
66460;Laerm;58055;52.456;4.738;2023-06-10T00:10:25;37.98;34.70;48.60;;
66460;Laerm;58055;52.456;4.738;2023-06-10T00:10:37;38.34;35.19;45.76;;
66460;Laerm;58055;52.456;4.738;2023-06-10T00:10:48;42.73;35.10;51.24;;
66460;Laerm;58055;52.456;4.738;2023-06-10T00:10:58;40.99;33.80;50.55;;
66460;Laerm;58055;52.456;4.738;2023-06-10T00:11:08;40.78;34.67;49.63;;
66460;Laerm;58055;52.456;4.738;2023-06-10T00:11:21;40.48;34.62;49.01;;
66460;Laerm;58055;52.456;4.738;2023-06-10T00:11:32;38.16;34.42;47.32;;
66460;Laerm;58055;52.456;4.738;2023-06-10T00:11:42;37.86;34.18;47.48;;
66460;Laerm;58055;52.456;4.738;2023-06-10T00:11:53;38.63;34.21;46.67;;
66460;Laerm;58055;52.456;4.738;2023-06-10T00:12:06;38.04;34.75;45.75;;
66460;Laerm;58055;52.456;4.738;2023-06-10T00:12:17;42.36;33.86;53.73;;
66460;Laerm;58055;52.456;4.738;2023-06-10T00:12:28;37.43;34.14;43.06;;
66460;Laerm;58055;52.456;4.738;2023-06-10T00:12:39;37.36;34.51;44.33;;
66460;Laerm;58055;52.456;4.738;2023-06-10T00:12:50;38.40;34.62;45.82;;
66460;Laerm;58055;52.456;4.738;2023-06-10T00:13:05;39.95;35.06;50.37;;
66460;Laerm;58055;52.456;4.738;2023-06-10T00:13:18;39.02;34.86;50.33;;
66460;Laerm;58055;52.456;4.738;2023-06-10T00:13:28;37.31;34.56;43.05;;
66460;Laerm;58055;52.456;4.738;2023-06-10T00:13:39;38.26;34.47;43.72;;
66460;Laerm;58055;52.456;4.738;2023-06-10T00:13:50;38.82;35.13;45.76;;
66460;Laerm;58055;52.456;4.738;2023-06-10T00:14:00;37.90;34.95;45.23;;
66460;Laerm;58055;52.456;4.738;2023-06-10T00:14:11;39.97;34.58;48.48;;
66460;Laerm;58055;52.456;4.738;2023-06-10T00:14:21;41.20;35.40;51.66;;
66460;Laerm;58055;52.456;4.738;2023-06-10T00:14:31;40.35;35.76;48.53;;
66460;Laerm;58055;52.456;4.738;2023-06-10T00:14:41;39.18;35.25;47.19;;
66460;Laerm;58055;52.456;4.738;2023-06-10T00:14:52;38.04;35.38;43.14;;
66460;Laerm;58055;52.456;4.738;2023-06-10T00:15:04;39.71;35.77;46.02;;
66460;Laerm;58055;52.456;4.738;2023-06-10T00:15:15;41.53;35.86;48.46;;
66460;Laerm;58055;52.456;4.738;2023-06-10T00:15:25;39.46;35.21;44.42;;
66460;Laerm;58055;52.456;4.738;2023-06-10T00:15:35;41.36;36.55;50.18;;
66460;Laerm;58055;52.456;4.738;2023-06-10T00:15:45;39.90;35.60;45.25;;
66460;Laerm;58055;52.456;4.738;2023-06-10T00:15:56;38.99;35.07;46.75;;
66460;Laerm;58055;52.456;4.738;2023-06-10T00:16:06;37.71;34.70;43.30;;
66460;Laerm;58055;52.456;4.738;2023-06-10T00:16:16;37.85;35.67;41.07;;
66460;Laerm;58055;52.456;4.738;2023-06-10T00:16:28;37.62;35.20;43.22;;
66460;Laerm;58055;52.456;4.738;2023-06-10T00:16:38;36.83;35.24;39.08;;
66460;Laerm;58055;52.456;4.738;2023-06-10T00:16:49;36.87;34.83;39.31;;
66460;Laerm;58055;52.456;4.738;2023-06-10T00:16:59;36.52;34.65;39.88;;
66460;Laerm;58055;52.456;4.738;2023-06-10T00:17:09;36.81;34.96;42.32;;
66460;Laerm;58055;52.456;4.738;2023-06-10T00:17:20;36.76;34.48;40.73;;
66460;Laerm;58055;52.456;4.738;2023-06-10T00:17:30;44.64;35.48;51.59;;
66460;Laerm;58055;52.456;4.738;2023-06-10T00:17:40;37.58;35.22;40.21;;
66460;Laerm;58055;52.456;4.738;2023-06-10T00:17:51;37.72;35.39;41.74;;
66460;Laerm;58055;52.456;4.738;2023-06-10T00:18:03;41.61;36.00;51.14;;
66460;Laerm;58055;52.456;4.738;2023-06-10T00:18:13;41.21;35.03;51.58;;
66460;Laerm;58055;52.456;4.738;2023-06-10T00:18:24;45.24;34.81;53.23;;
66460;Laerm;58055;52.456;4.738;2023-06-10T00:18:36;36.81;34.59;43.69;;
66460;Laerm;58055;52.456;4.738;2023-06-10T00:18:49;38.80;34.95;46.86;;
66460;Laerm;58055;52.456;4.738;2023-06-10T00:19:01;38.69;34.73;45.81;;
66460;Laerm;58055;52.456;4.738;2023-06-10T00:19:12;38.22;34.45;47.74;;
66460;Laerm;58055;52.456;4.738;2023-06-10T00:19:25;37.61;34.23;44.04;;
66460;Laerm;58055;52.456;4.738;2023-06-10T00:19:40;40.96;34.30;50.10;;
66460;Laerm;58055;52.456;4.738;2023-06-10T00:19:51;38.24;34.93;45.57;;
66460;Laerm;58055;52.456;4.738;2023-06-10T00:20:01;37.11;34.58;42.89;;
66460;Laerm;58055;52.456;4.738;2023-06-10T00:20:15;37.84;35.04;42.08;;
66460;Laerm;58055;52.456;4.738;2023-06-10T00:20:25;38.01;34.37;42.85;;
66460;Laerm;58055;52.456;4.738;2023-06-10T00:20:36;38.50;34.76;46.19;;
66460;Laerm;58055;52.456;4.738;2023-06-10T00:20:48;39.06;34.80;48.52;;
66460;Laerm;58055;52.456;4.738;2023-06-10T00:21:03;42.06;34.82;54.46;;
66460;Laerm;58055;52.456;4.738;2023-06-10T00:21:14;37.28;34.98;43.88;;
66460;Laerm;58055;52.456;4.738;2023-06-10T00:21:25;38.74;34.46;44.98;;
66460;Laerm;58055;52.456;4.738;2023-06-10T00:21:36;36.89;34.53;44.28;;
66460;Laerm;58055;52.456;4.738;2023-06-10T00:21:50;38.88;34.99;45.48;;
66460;Laerm;58055;52.456;4.738;2023-06-10T00:22:01;37.05;34.68;41.67;;
66460;Laerm;58055;52.456;4.738;2023-06-10T00:22:11;37.01;34.99;40.43;;
66460;Laerm;58055;52.456;4.738;2023-06-10T00:22:22;37.01;34.57;41.69;;
66460;Laerm;58055;52.456;4.738;2023-06-10T00:22:32;36.51;34.14;41.57;;
66460;Laerm;58055;52.456;4.738;2023-06-10T00:22:42;35.99;34.10;44.33;;
66460;Laerm;58055;52.456;4.738;2023-06-10T00:22:57;35.93;33.42;40.50;;
66460;Laerm;58055;52.456;4.738;2023-06-10T00:23:09;36.52;34.31;39.29;;
66460;Laerm;58055;52.456;4.738;2023-06-10T00:23:19;36.49;34.47;39.87;;
66460;Laerm;58055;52.456;4.738;2023-06-10T00:23:32;37.26;34.46;45.47;;
66460;Laerm;58055;52.456;4.738;2023-06-10T00:23:47;36.88;34.39;41.71;;
66460;Laerm;58055;52.456;4.738;2023-06-10T00:23:57;36.81;34.01;41.55;;
66460;Laerm;58055;52.456;4.738;2023-06-10T00:24:13;35.95;34.10;38.47;;
66460;Laerm;58055;52.456;4.738;2023-06-10T00:24:23;36.05;34.36;38.61;;
66460;Laerm;58055;52.456;4.738;2023-06-10T00:24:33;37.71;34.65;43.99;;
66460;Laerm;58055;52.456;4.738;2023-06-10T00:24:44;37.28;34.78;42.86;;
66460;Laerm;58055;52.456;4.738;2023-06-10T00:24:54;36.60;34.72;39.34;;
66460;Laerm;58055;52.456;4.738;2023-06-10T00:25:05;37.49;34.79;41.85;;
66460;Laerm;58055;52.456;4.738;2023-06-10T00:25:16;37.02;35.18;41.45;;
66460;Laerm;58055;52.456;4.738;2023-06-10T00:25:26;37.63;35.16;45.62;;
66460;Laerm;58055;52.456;4.738;2023-06-10T00:25:36;37.14;35.23;42.27;;
66460;Laerm;58055;52.456;4.738;2023-06-10T00:25:47;38.53;35.07;48.96;;
66460;Laerm;58055;52.456;4.738;2023-06-10T00:25:59;37.97;35.83;43.61;;
66460;Laerm;58055;52.456;4.738;2023-06-10T00:26:10;38.00;35.24;43.65;;
66460;Laerm;58055;52.456;4.738;2023-06-10T00:26:21;37.92;34.96;44.89;;
66460;Laerm;58055;52.456;4.738;2023-06-10T00:26:31;38.41;34.83;47.38;;
66460;Laerm;58055;52.456;4.738;2023-06-10T00:26:42;36.54;34.17;39.82;;
66460;Laerm;58055;52.456;4.738;2023-06-10T00:26:53;37.21;34.80;46.57;;
66460;Laerm;58055;52.456;4.738;2023-06-10T00:27:03;36.53;34.75;39.75;;
66460;Laerm;58055;52.456;4.738;2023-06-10T00:27:13;37.16;35.35;41.06;;
66460;Laerm;58055;52.456;4.738;2023-06-10T00:27:24;38.35;35.17;43.81;;
66460;Laerm;58055;52.456;4.738;2023-06-10T00:27:36;38.28;35.53;42.54;;
66460;Laerm;58055;52.456;4.738;2023-06-10T00:27:47;39.22;36.11;45.41;;
66460;Laerm;58055;52.456;4.738;2023-06-10T00:27:57;39.75;36.94;44.31;;
66460;Laerm;58055;52.456;4.738;2023-06-10T00:28:07;40.46;37.58;44.18;;
66460;Laerm;58055;52.456;4.738;2023-06-10T00:28:17;40.65;37.92;45.69;;
66460;Laerm;58055;52.456;4.738;2023-06-10T00:28:28;39.08;36.79;43.06;;
66460;Laerm;58055;52.456;4.738;2023-06-10T00:28:38;39.08;36.55;42.26;;
66460;Laerm;58055;52.456;4.738;2023-06-10T00:28:48;39.21;36.78;42.22;;
66460;Laerm;58055;52.456;4.738;2023-06-10T00:28:59;40.35;37.39;45.19;;
66460;Laerm;58055;52.456;4.738;2023-06-10T00:29:09;38.75;36.76;43.67;;
66460;Laerm;58055;52.456;4.738;2023-06-10T00:29:20;39.80;36.80;45.09;;
66460;Laerm;58055;52.456;4.738;2023-06-10T00:29:30;40.42;36.62;47.10;;
66460;Laerm;58055;52.456;4.738;2023-06-10T00:29:40;40.01;36.91;46.49;;
66460;Laerm;58055;52.456;4.738;2023-06-10T00:29:51;40.05;36.82;44.54;;
66460;Laerm;58055;52.456;4.738;2023-06-10T00:30:04;38.57;36.99;42.46;;
66460;Laerm;58055;52.456;4.738;2023-06-10T00:30:16;38.60;36.49;41.74;;
66460;Laerm;58055;52.456;4.738;2023-06-10T00:30:27;38.32;36.57;43.77;;
66460;Laerm;58055;52.456;4.738;2023-06-10T00:30:37;38.67;36.77;47.07;;
66460;Laerm;58055;52.456;4.738;2023-06-10T00:30:47;38.83;34.08;46.17;;
66460;Laerm;58055;52.456;4.738;2023-06-10T00:30:58;38.87;34.28;49.30;;
66460;Laerm;58055;52.456;4.738;2023-06-10T00:31:08;38.77;35.26;43.70;;
66460;Laerm;58055;52.456;4.738;2023-06-10T00:31:18;37.07;34.68;41.83;;
66460;Laerm;58055;52.456;4.738;2023-06-10T00:31:29;36.83;34.08;43.78;;
66460;Laerm;58055;52.456;4.738;2023-06-10T00:31:40;36.65;34.99;39.31;;
66460;Laerm;58055;52.456;4.738;2023-06-10T00:31:50;36.46;34.40;40.05;;
66460;Laerm;58055;52.456;4.738;2023-06-10T00:32:00;36.13;34.09;39.18;;
66460;Laerm;58055;52.456;4.738;2023-06-10T00:32:11;36.31;34.28;38.80;;
66460;Laerm;58055;52.456;4.738;2023-06-10T00:32:21;36.85;34.99;42.12;;
66460;Laerm;58055;52.456;4.738;2023-06-10T00:32:32;37.47;34.85;41.28;;
66460;Laerm;58055;52.456;4.738;2023-06-10T00:32:42;37.09;35.24;40.00;;
66460;Laerm;58055;52.456;4.738;2023-06-10T00:32:52;37.08;35.20;41.90;;
66460;Laerm;58055;52.456;4.738;2023-06-10T00:33:03;38.07;34.68;43.53;;
66460;Laerm;58055;52.456;4.738;2023-06-10T00:33:13;38.81;35.33;43.48;;
66460;Laerm;58055;52.456;4.738;2023-06-10T00:33:23;37.03;35.04;41.11;;
66460;Laerm;58055;52.456;4.738;2023-06-10T00:33:34;37.61;35.23;40.92;;
66460;Laerm;58055;52.456;4.738;2023-06-10T00:33:45;36.60;34.59;39.62;;
66460;Laerm;58055;52.456;4.738;2023-06-10T00:33:55;37.98;35.09;44.16;;
66460;Laerm;58055;52.456;4.738;2023-06-10T00:34:06;36.56;34.47;38.69;;
66460;Laerm;58055;52.456;4.738;2023-06-10T00:34:17;37.66;34.65;43.07;;
66460;Laerm;58055;52.456;4.738;2023-06-10T00:34:27;37.19;34.63;41.82;;
66460;Laerm;58055;52.456;4.738;2023-06-10T00:34:38;37.84;35.38;43.06;;
66460;Laerm;58055;52.456;4.738;2023-06-10T00:34:48;38.65;36.43;42.91;;
66460;Laerm;58055;52.456;4.738;2023-06-10T00:34:58;37.42;35.58;40.03;;
66460;Laerm;58055;52.456;4.738;2023-06-10T00:35:08;37.02;34.84;40.34;;
66460;Laerm;58055;52.456;4.738;2023-06-10T00:35:19;37.44;34.99;43.31;;
66460;Laerm;58055;52.456;4.738;2023-06-10T00:35:30;38.16;35.12;44.33;;
66460;Laerm;58055;52.456;4.738;2023-06-10T00:35:40;39.13;35.51;42.89;;
66460;Laerm;58055;52.456;4.738;2023-06-10T00:35:50;39.77;34.90;46.86;;
66460;Laerm;58055;52.456;4.738;2023-06-10T00:36:00;39.31;35.36;48.80;;
66460;Laerm;58055;52.456;4.738;2023-06-10T00:36:11;38.45;35.10;44.29;;
66460;Laerm;58055;52.456;4.738;2023-06-10T00:36:21;37.32;35.11;44.07;;
66460;Laerm;58055;52.456;4.738;2023-06-10T00:36:32;37.34;35.07;42.13;;
66460;Laerm;58055;52.456;4.738;2023-06-10T00:36:42;37.31;35.11;42.54;;
66460;Laerm;58055;52.456;4.738;2023-06-10T00:36:53;40.44;34.85;56.96;;
66460;Laerm;58055;52.456;4.738;2023-06-10T00:37:03;37.07;34.76;41.61;;
66460;Laerm;58055;52.456;4.738;2023-06-10T00:37:13;38.15;35.16;43.15;;
66460;Laerm;58055;52.456;4.738;2023-06-10T00:37:24;41.86;35.52;54.71;;
66460;Laerm;58055;52.456;4.738;2023-06-10T00:37:34;38.63;35.25;45.69;;
66460;Laerm;58055;52.456;4.738;2023-06-10T00:37:46;38.53;34.64;45.28;;
66460;Laerm;58055;52.456;4.738;2023-06-10T00:37:56;40.93;34.79;50.18;;
66460;Laerm;58055;52.456;4.738;2023-06-10T00:38:06;37.81;34.72;45.38;;
66460;Laerm;58055;52.456;4.738;2023-06-10T00:38:17;37.55;34.74;45.33;;
66460;Laerm;58055;52.456;4.738;2023-06-10T00:38:27;37.40;35.08;42.64;;
66460;Laerm;58055;52.456;4.738;2023-06-10T00:38:37;37.02;35.09;39.13;;
66460;Laerm;58055;52.456;4.738;2023-06-10T00:38:48;37.85;34.83;45.99;;
66460;Laerm;58055;52.456;4.738;2023-06-10T00:38:58;38.57;34.58;46.89;;
66460;Laerm;58055;52.456;4.738;2023-06-10T00:39:09;37.74;34.74;45.50;;
66460;Laerm;58055;52.456;4.738;2023-06-10T00:39:19;37.08;34.47;42.12;;
66460;Laerm;58055;52.456;4.738;2023-06-10T00:39:29;36.12;34.37;41.12;;
66460;Laerm;58055;52.456;4.738;2023-06-10T00:39:40;37.32;34.52;41.96;;
66460;Laerm;58055;52.456;4.738;2023-06-10T00:39:50;38.21;33.78;43.76;;
66460;Laerm;58055;52.456;4.738;2023-06-10T00:40:01;37.15;34.36;42.68;;
66460;Laerm;58055;52.456;4.738;2023-06-10T00:40:11;37.43;34.49;43.16;;
66460;Laerm;58055;52.456;4.738;2023-06-10T00:40:22;38.25;34.78;43.79;;
66460;Laerm;58055;52.456;4.738;2023-06-10T00:40:33;36.85;34.23;41.46;;
66460;Laerm;58055;52.456;4.738;2023-06-10T00:40:43;38.99;34.52;44.70;;
66460;Laerm;58055;52.456;4.738;2023-06-10T00:40:54;38.20;34.18;45.94;;
66460;Laerm;58055;52.456;4.738;2023-06-10T00:41:04;35.73;33.88;39.08;;
66460;Laerm;58055;52.456;4.738;2023-06-10T00:41:15;37.47;34.33;42.30;;
66460;Laerm;58055;52.456;4.738;2023-06-10T00:41:25;38.37;34.57;43.34;;
66460;Laerm;58055;52.456;4.738;2023-06-10T00:41:36;38.53;34.27;43.67;;
66460;Laerm;58055;52.456;4.738;2023-06-10T00:41:46;37.33;34.38;44.22;;
66460;Laerm;58055;52.456;4.738;2023-06-10T00:41:57;36.41;34.30;39.45;;
66460;Laerm;58055;52.456;4.738;2023-06-10T00:42:07;37.40;34.37;45.98;;
66460;Laerm;58055;52.456;4.738;2023-06-10T00:42:17;38.91;34.78;43.26;;
66460;Laerm;58055;52.456;4.738;2023-06-10T00:42:28;38.08;34.52;44.96;;
66460;Laerm;58055;52.456;4.738;2023-06-10T00:42:38;37.97;34.69;43.54;;
66460;Laerm;58055;52.456;4.738;2023-06-10T00:42:48;37.71;35.16;42.53;;
66460;Laerm;58055;52.456;4.738;2023-06-10T00:42:59;39.19;35.15;47.98;;
66460;Laerm;58055;52.456;4.738;2023-06-10T00:43:09;39.02;35.12;47.76;;
66460;Laerm;58055;52.456;4.738;2023-06-10T00:43:20;36.33;34.56;39.31;;
66460;Laerm;58055;52.456;4.738;2023-06-10T00:43:30;36.55;34.59;39.87;;
66460;Laerm;58055;52.456;4.738;2023-06-10T00:43:40;36.47;34.83;41.26;;
66460;Laerm;58055;52.456;4.738;2023-06-10T00:43:51;35.97;34.33;37.74;;
66460;Laerm;58055;52.456;4.738;2023-06-10T00:44:01;36.36;33.70;39.79;;
66460;Laerm;58055;52.456;4.738;2023-06-10T00:44:11;36.12;34.22;38.08;;
66460;Laerm;58055;52.456;4.738;2023-06-10T00:44:22;38.45;34.91;46.46;;
66460;Laerm;58055;52.456;4.738;2023-06-10T00:44:32;38.02;35.05;43.43;;
66460;Laerm;58055;52.456;4.738;2023-06-10T00:44:42;36.63;34.48;41.24;;
66460;Laerm;58055;52.456;4.738;2023-06-10T00:44:53;36.55;34.56;40.47;;
66460;Laerm;58055;52.456;4.738;2023-06-10T00:45:05;36.14;34.57;38.36;;
66460;Laerm;58055;52.456;4.738;2023-06-10T00:45:15;36.60;34.46;40.24;;
66460;Laerm;58055;52.456;4.738;2023-06-10T00:45:25;36.52;34.80;39.89;;
66460;Laerm;58055;52.456;4.738;2023-06-10T00:45:36;36.17;34.25;40.19;;
66460;Laerm;58055;52.456;4.738;2023-06-10T00:45:46;36.62;34.48;39.98;;
66460;Laerm;58055;52.456;4.738;2023-06-10T00:45:56;36.49;34.07;39.00;;
66460;Laerm;58055;52.456;4.738;2023-06-10T00:46:07;36.71;34.83;40.77;;
66460;Laerm;58055;52.456;4.738;2023-06-10T00:46:17;39.28;34.90;45.84;;
66460;Laerm;58055;52.456;4.738;2023-06-10T00:46:28;38.72;35.09;46.71;;
66460;Laerm;58055;52.456;4.738;2023-06-10T00:46:39;36.90;34.85;39.43;;
66460;Laerm;58055;52.456;4.738;2023-06-10T00:46:50;39.52;34.61;45.82;;
66460;Laerm;58055;52.456;4.738;2023-06-10T00:47:01;36.07;34.28;38.39;;
66460;Laerm;58055;52.456;4.738;2023-06-10T00:47:11;36.18;34.50;38.69;;
66460;Laerm;58055;52.456;4.738;2023-06-10T00:47:22;36.76;34.88;39.06;;
66460;Laerm;58055;52.456;4.738;2023-06-10T00:47:32;37.31;34.89;40.09;;
66460;Laerm;58055;52.456;4.738;2023-06-10T00:47:43;38.35;35.37;43.98;;
66460;Laerm;58055;52.456;4.738;2023-06-10T00:47:53;39.71;36.05;44.91;;
66460;Laerm;58055;52.456;4.738;2023-06-10T00:48:03;38.26;35.83;41.47;;
66460;Laerm;58055;52.456;4.738;2023-06-10T00:48:14;37.94;35.63;42.24;;
66460;Laerm;58055;52.456;4.738;2023-06-10T00:48:24;38.75;34.91;45.15;;
66460;Laerm;58055;52.456;4.738;2023-06-10T00:48:35;38.76;35.75;44.03;;
66460;Laerm;58055;52.456;4.738;2023-06-10T00:48:45;40.26;35.34;45.68;;
66460;Laerm;58055;52.456;4.738;2023-06-10T00:48:56;39.84;35.81;44.96;;
66460;Laerm;58055;52.456;4.738;2023-06-10T00:49:07;37.24;35.35;40.29;;
66460;Laerm;58055;52.456;4.738;2023-06-10T00:49:18;37.37;35.31;40.54;;
66460;Laerm;58055;52.456;4.738;2023-06-10T00:49:28;37.62;35.27;42.40;;
66460;Laerm;58055;52.456;4.738;2023-06-10T00:49:38;38.86;34.57;46.91;;
66460;Laerm;58055;52.456;4.738;2023-06-10T00:49:49;38.31;34.90;45.54;;
66460;Laerm;58055;52.456;4.738;2023-06-10T00:50:01;40.42;34.62;49.02;;
66460;Laerm;58055;52.456;4.738;2023-06-10T00:50:11;42.28;34.19;52.73;;
66460;Laerm;58055;52.456;4.738;2023-06-10T00:50:22;40.05;34.97;49.93;;
66460;Laerm;58055;52.456;4.738;2023-06-10T00:50:32;40.59;35.06;47.96;;
66460;Laerm;58055;52.456;4.738;2023-06-10T00:50:45;41.69;34.61;50.88;;
66460;Laerm;58055;52.456;4.738;2023-06-10T00:50:56;42.52;33.88;51.49;;
66460;Laerm;58055;52.456;4.738;2023-06-10T00:51:08;40.01;33.94;49.57;;
66460;Laerm;58055;52.456;4.738;2023-06-10T00:51:19;37.51;34.73;48.09;;
66460;Laerm;58055;52.456;4.738;2023-06-10T00:51:29;36.54;34.27;40.42;;
66460;Laerm;58055;52.456;4.738;2023-06-10T00:51:39;38.09;34.62;43.43;;
66460;Laerm;58055;52.456;4.738;2023-06-10T00:51:50;39.48;34.49;47.11;;
66460;Laerm;58055;52.456;4.738;2023-06-10T00:52:02;37.79;33.98;46.17;;
66460;Laerm;58055;52.456;4.738;2023-06-10T00:52:14;37.80;34.21;44.14;;
66460;Laerm;58055;52.456;4.738;2023-06-10T00:52:25;36.58;34.18;41.21;;
66460;Laerm;58055;52.456;4.738;2023-06-10T00:52:37;37.33;34.71;42.06;;
66460;Laerm;58055;52.456;4.738;2023-06-10T00:52:47;36.67;34.08;39.26;;
66460;Laerm;58055;52.456;4.738;2023-06-10T00:52:58;36.76;34.14;40.23;;
66460;Laerm;58055;52.456;4.738;2023-06-10T00:53:09;37.76;35.08;42.18;;
66460;Laerm;58055;52.456;4.738;2023-06-10T00:53:21;38.88;35.46;46.47;;
66460;Laerm;58055;52.456;4.738;2023-06-10T00:53:32;38.88;35.47;43.42;;
66460;Laerm;58055;52.456;4.738;2023-06-10T00:53:42;38.46;34.56;43.07;;
66460;Laerm;58055;52.456;4.738;2023-06-10T00:53:53;37.26;34.40;45.57;;
66460;Laerm;58055;52.456;4.738;2023-06-10T00:54:04;36.85;35.07;39.80;;
66460;Laerm;58055;52.456;4.738;2023-06-10T00:54:15;36.24;34.23;42.28;;
66460;Laerm;58055;52.456;4.738;2023-06-10T00:54:25;35.91;34.26;37.73;;
66460;Laerm;58055;52.456;4.738;2023-06-10T00:54:37;36.32;34.33;40.78;;
66460;Laerm;58055;52.456;4.738;2023-06-10T00:54:48;37.73;34.14;44.29;;
66460;Laerm;58055;52.456;4.738;2023-06-10T00:54:59;37.74;35.26;54.20;;
66460;Laerm;58055;52.456;4.738;2023-06-10T00:55:09;37.05;34.80;41.28;;
66460;Laerm;58055;52.456;4.738;2023-06-10T00:55:19;36.99;34.94;43.65;;
66460;Laerm;58055;52.456;4.738;2023-06-10T00:55:30;36.56;33.88;41.05;;
66460;Laerm;58055;52.456;4.738;2023-06-10T00:55:42;37.34;34.35;43.50;;
66460;Laerm;58055;52.456;4.738;2023-06-10T00:55:53;38.36;34.66;45.12;;
66460;Laerm;58055;52.456;4.738;2023-06-10T00:56:03;36.30;34.23;40.07;;
66460;Laerm;58055;52.456;4.738;2023-06-10T00:56:14;35.99;34.17;39.06;;
66460;Laerm;58055;52.456;4.738;2023-06-10T00:56:25;37.14;34.54;43.30;;
66460;Laerm;58055;52.456;4.738;2023-06-10T00:56:35;36.49;34.14;41.84;;
66460;Laerm;58055;52.456;4.738;2023-06-10T00:56:46;35.69;33.83;37.45;;
66460;Laerm;58055;52.456;4.738;2023-06-10T00:57:00;35.83;34.20;37.99;;
66460;Laerm;58055;52.456;4.738;2023-06-10T00:57:10;36.49;34.58;40.33;;
66460;Laerm;58055;52.456;4.738;2023-06-10T00:57:23;36.77;34.11;41.62;;
66460;Laerm;58055;52.456;4.738;2023-06-10T00:57:33;36.47;34.71;38.23;;
66460;Laerm;58055;52.456;4.738;2023-06-10T00:57:45;36.42;33.84;38.42;;
66460;Laerm;58055;52.456;4.738;2023-06-10T00:57:55;36.60;34.86;39.24;;
66460;Laerm;58055;52.456;4.738;2023-06-10T00:58:06;37.88;34.99;46.45;;
66460;Laerm;58055;52.456;4.738;2023-06-10T00:58:17;38.51;35.21;48.05;;
66460;Laerm;58055;52.456;4.738;2023-06-10T00:58:27;39.06;34.53;47.70;;
66460;Laerm;58055;52.456;4.738;2023-06-10T00:58:38;40.76;33.95;48.97;;
66460;Laerm;58055;52.456;4.738;2023-06-10T00:58:48;39.06;34.31;45.46;;
66460;Laerm;58055;52.456;4.738;2023-06-10T00:58:58;39.60;34.88;51.77;;
66460;Laerm;58055;52.456;4.738;2023-06-10T00:59:09;36.82;34.29;41.22;;
66460;Laerm;58055;52.456;4.738;2023-06-10T00:59:19;38.27;34.14;46.06;;
66460;Laerm;58055;52.456;4.738;2023-06-10T00:59:30;36.05;34.15;39.70;;
66460;Laerm;58055;52.456;4.738;2023-06-10T00:59:41;36.16;34.18;39.40;;
66460;Laerm;58055;52.456;4.738;2023-06-10T00:59:53;36.12;34.10;39.36;;
66460;Laerm;58055;52.456;4.738;2023-06-10T01:00:04;35.97;34.00;38.77;;
66460;Laerm;58055;52.456;4.738;2023-06-10T01:00:17;36.67;34.07;40.30;;
66460;Laerm;58055;52.456;4.738;2023-06-10T01:00:28;36.26;34.22;38.97;;
66460;Laerm;58055;52.456;4.738;2023-06-10T01:00:38;35.96;33.94;39.33;;